Time;durP1;ratioP1;P1;durP2;ratioP2;P2;SDS_P1;SDS_P2;PMS_P1;PMS_P2;Temp;Humidity;BMP_temperature;BMP_pressure;BME280_temperature;BME280_humidity;BME280_pressure;Samples;Min_cycle;Max_cycle;Signal;HPM_P1;HPM_P2
2022/08/20 00:00:48;;;;;;;4.40;4.10;;;23.50;70.50;;;;;;5112673;28;20184;-70
2022/08/20 00:03:26;;;;;;;4.22;3.92;;;23.50;70.60;;;;;;5112817;28;20260;-70
2022/08/20 00:05:58;;;;;;;4.03;3.72;;;23.50;70.60;;;;;;5113190;28;20214;-70
2022/08/20 00:08:25;;;;;;;3.50;3.30;;;23.50;70.50;;;;;;5078914;28;20200;-70
2022/08/20 00:10:53;;;;;;;3.70;3.50;;;23.50;70.50;;;;;;5113149;28;20203;-70
2022/08/20 00:13:31;;;;;;;4.10;3.80;;;23.50;70.50;;;;;;5078779;28;20180;-70
2022/08/20 00:15:58;;;;;;;3.53;3.33;;;23.50;70.50;;;;;;5113909;28;20187;-70
2022/08/20 00:18:24;;;;;;;3.55;3.35;;;23.60;70.60;;;;;;5078949;28;20203;-70
2022/08/20 00:20:53;;;;;;;3.80;3.60;;;23.50;70.50;;;;;;5113353;28;20181;-70
2022/08/20 00:23:21;;;;;;;3.90;3.60;;;23.50;70.60;;;;;;5095531;28;20283;-70
2022/08/20 00:25:47;;;;;;;3.50;3.30;;;23.50;70.60;;;;;;5095777;28;20188;-70
2022/08/20 00:28:14;;;;;;;4.10;3.80;;;23.50;70.60;;;;;;5113966;28;20306;-70
2022/08/20 00:30:44;;;;;;;3.40;3.20;;;23.50;70.60;;;;;;5113653;28;20237;-70
2022/08/20 00:33:17;;;;;;;3.85;3.55;;;23.50;70.50;;;;;;5095073;28;20184;-70
2022/08/20 00:35:50;;;;;;;3.38;3.17;;;23.50;70.50;;;;;;5078384;28;20572;-70
2022/08/20 00:38:17;;;;;;;3.40;3.20;;;23.50;70.50;;;;;;5112378;28;20199;-70
2022/08/20 00:40:57;;;;;;;3.53;3.30;;;23.50;70.50;;;;;;5095018;28;20203;-70
2022/08/20 00:43:36;;;;;;;3.17;2.97;;;23.50;70.50;;;;;;5095189;28;20212;-70
2022/08/20 00:46:08;;;;;;;3.10;2.90;;;23.50;70.50;;;;;;5094902;28;20608;-70
2022/08/20 00:48:40;;;;;;;3.30;3.10;;;23.50;70.50;;;;;;5095216;28;20200;-70
2022/08/20 00:51:27;;;;;;;3.50;3.30;;;23.50;70.50;;;;;;5094773;28;20187;-70
2022/08/20 00:54:01;;;;;;;3.47;3.28;;;23.50;70.50;;;;;;5095106;28;20176;-70
2022/08/20 00:56:32;;;;;;;3.60;3.40;;;23.50;70.60;;;;;;5112744;28;20180;-70
2022/08/20 00:58:59;;;;;;;3.08;2.88;;;23.50;70.40;;;;;;5113093;28;20279;-70
2022/08/20 01:01:25;;;;;;;3.20;3.00;;;23.50;70.50;;;;;;5112631;28;20263;-70
2022/08/20 01:03:55;;;;;;;3.28;3.08;;;23.50;70.50;;;;;;5112967;28;20324;-70
2022/08/20 01:06:24;;;;;;;2.70;2.53;;;23.50;70.60;;;;;;5077816;28;20232;-70
2022/08/20 01:08:50;;;;;;;3.10;2.90;;;23.50;70.50;;;;;;5094731;28;20204;-70
2022/08/20 01:11:17;;;;;;;3.05;2.85;;;23.50;70.50;;;;;;5094673;28;20317;-70
2022/08/20 01:13:45;;;;;;;3.30;3.10;;;23.50;70.50;;;;;;5112983;28;20263;-70
2022/08/20 01:16:29;;;;;;;3.10;2.90;;;23.50;70.40;;;;;;5078098;28;20181;-70
2022/08/20 01:18:56;;;;;;;3.13;2.92;;;23.50;70.40;;;;;;5111962;28;20216;-70
2022/08/20 01:21:30;;;;;;;2.88;2.67;;;23.50;70.40;;;;;;5104416;28;20184;-70
2022/08/20 01:24:10;;;;;;;3.33;3.13;;;23.50;70.40;;;;;;5094573;28;20239;-70
2022/08/20 01:26:42;;;;;;;3.00;2.80;;;23.40;70.50;;;;;;5093743;28;20659;-70
2022/08/20 01:29:17;;;;;;;2.70;2.50;;;23.50;70.40;;;;;;5077783;28;20675;-70
2022/08/20 01:31:43;;;;;;;3.17;2.97;;;23.40;70.30;;;;;;5093899;28;20194;-70
2022/08/20 01:34:17;;;;;;;3.30;3.10;;;23.40;70.30;;;;;;5077445;28;20176;-70
2022/08/20 01:36:52;;;;;;;2.70;2.50;;;23.40;70.30;;;;;;5094299;28;20211;-70
2022/08/20 01:39:28;;;;;;;2.50;2.40;;;23.40;70.20;;;;;;5077385;28;20722;-69
2022/08/20 01:42:24;;;;;;;2.53;2.42;;;23.50;70.30;;;;;;5093825;28;20180;-70
2022/08/20 01:44:51;;;;;;;2.80;2.60;;;23.50;70.40;;;;;;5112326;28;20263;-70
2022/08/20 01:47:27;;;;;;;2.70;2.60;;;23.40;70.30;;;;;;5112198;28;20195;-70
2022/08/20 01:50:00;;;;;;;2.70;2.50;;;23.50;70.50;;;;;;5094276;28;20180;-70
2022/08/20 01:52:41;;;;;;;2.90;2.70;;;23.40;70.30;;;;;;5111005;28;20211;-70
2022/08/20 01:55:09;;;;;;;2.88;2.67;;;23.50;70.30;;;;;;5111090;28;20215;-70
2022/08/20 01:57:38;;;;;;;2.97;2.78;;;23.50;70.30;;;;;;5111062;28;20258;-70
2022/08/20 02:00:14;;;;;;;2.60;2.50;;;23.40;70.10;;;;;;5111237;28;20184;-70
2022/08/20 02:02:40;;;;;;;2.65;2.55;;;23.50;70.30;;;;;;5074730;28;20240;-70
2022/08/20 02:05:07;;;;;;;2.75;2.63;;;23.40;70.20;;;;;;5110668;28;20203;-70
2022/08/20 02:07:34;;;;;;;2.40;2.30;;;23.40;70.20;;;;;;5113673;28;20179;-69
2022/08/20 02:10:00;;;;;;;2.22;2.13;;;23.40;70.10;;;;;;5115084;28;20215;-70
2022/08/20 02:12:26;;;;;;;2.50;2.40;;;23.40;70.20;;;;;;5079853;28;20202;-70
2022/08/20 02:14:54;;;;;;;2.70;2.50;;;23.40;70.10;;;;;;5081378;28;20654;-70
2022/08/20 02:17:23;;;;;;;2.40;2.30;;;23.50;70.20;;;;;;5116136;28;20180;-70
2022/08/20 02:19:56;;;;;;;2.55;2.40;;;23.40;70.10;;;;;;5094265;28;20188;-70
2022/08/20 02:22:28;;;;;;;2.70;2.50;;;23.40;70.10;;;;;;5107067;28;20255;-70
2022/08/20 02:24:53;;;;;;;2.20;2.10;;;23.40;70.10;;;;;;5116133;28;20302;-70
2022/08/20 02:27:22;;;;;;;2.40;2.30;;;23.40;70.10;;;;;;5115944;28;20232;-70
2022/08/20 02:29:49;;;;;;;2.55;2.45;;;23.40;70.10;;;;;;5115008;28;20176;-70
2022/08/20 02:32:14;;;;;;;2.38;2.28;;;23.40;70.00;;;;;;5115387;28;20180;-70
2022/08/20 02:34:40;;;;;;;2.42;2.33;;;23.40;70.00;;;;;;5115201;28;20187;-70
2022/08/20 02:37:06;;;;;;;2.38;2.28;;;23.40;70.00;;;;;;5114808;28;20609;-70
2022/08/20 02:39:33;;;;;;;2.50;2.40;;;23.40;70.10;;;;;;5114891;28;20239;-70
2022/08/20 02:42:00;;;;;;;2.53;2.33;;;23.40;70.10;;;;;;5113982;28;20184;-70
2022/08/20 02:44:26;;;;;;;2.00;1.90;;;23.40;70.10;;;;;;5114734;28;20207;-70
2022/08/20 02:46:52;;;;;;;2.55;2.35;;;23.40;70.00;;;;;;5115828;28;20176;-70
2022/08/20 02:49:20;;;;;;;2.20;2.10;;;23.40;70.00;;;;;;5114346;28;20199;-70
2022/08/20 02:51:46;;;;;;;2.40;2.30;;;23.40;70.00;;;;;;5113990;28;20233;-70
2022/08/20 02:54:13;;;;;;;2.13;2.03;;;23.40;70.00;;;;;;5097075;28;20190;-70
2022/08/20 02:56:40;;;;;;;2.25;2.15;;;23.40;70.00;;;;;;5115324;28;20185;-70
2022/08/20 02:59:06;;;;;;;2.30;2.20;;;23.40;70.00;;;;;;5115386;28;20212;-70
2022/08/20 03:01:33;;;;;;;2.47;2.38;;;23.40;70.00;;;;;;5096614;28;20349;-70
2022/08/20 03:03:58;;;;;;;2.28;2.17;;;23.40;70.00;;;;;;5114267;28;20279;-70
2022/08/20 03:06:26;;;;;;;2.40;2.30;;;23.40;70.00;;;;;;5097060;28;20275;-70
2022/08/20 03:08:52;;;;;;;2.05;1.95;;;23.40;70.00;;;;;;5097080;28;20208;-70
2022/08/20 03:11:19;;;;;;;2.22;2.03;;;23.40;69.90;;;;;;5096502;28;20212;-70
2022/08/20 03:13:46;;;;;;;2.20;2.00;;;23.40;69.90;;;;;;5112331;28;20184;-70
2022/08/20 03:16:13;;;;;;;2.35;2.20;;;23.40;69.90;;;;;;5115107;28;20232;-70
2022/08/20 03:18:44;;;;;;;2.10;2.00;;;23.40;69.90;;;;;;5114565;28;20200;-70
2022/08/20 03:21:11;;;;;;;2.17;2.05;;;23.40;69.90;;;;;;5114603;28;20264;-70
2022/08/20 03:23:39;;;;;;;2.10;2.00;;;23.40;69.90;;;;;;5096736;28;20196;-70
2022/08/20 03:26:09;;;;;;;2.40;2.30;;;23.40;69.80;;;;;;5080004;28;20565;-70
2022/08/20 03:28:36;;;;;;;2.00;1.90;;;23.40;69.90;;;;;;5096537;28;20267;-70
2022/08/20 03:31:03;;;;;;;2.00;1.90;;;23.40;69.90;;;;;;5114476;28;20169;-70
2022/08/20 03:33:30;;;;;;;2.30;2.20;;;23.40;69.90;;;;;;5096664;28;20191;-70
2022/08/20 03:35:56;;;;;;;2.42;2.30;;;23.40;69.80;;;;;;5096641;28;20184;-70
2022/08/20 03:38:24;;;;;;;2.05;1.95;;;23.40;69.80;;;;;;5113464;28;20241;-70
2022/08/20 03:40:50;;;;;;;1.90;1.80;;;23.40;69.80;;;;;;5096561;28;20188;-69
2022/08/20 03:43:17;;;;;;;2.00;1.90;;;23.40;69.80;;;;;;5096482;28;20212;-70
2022/08/20 03:45:45;;;;;;;2.20;2.10;;;23.40;69.80;;;;;;5113202;28;20176;-70
2022/08/20 03:48:17;;;;;;;1.98;1.88;;;23.40;69.80;;;;;;5114541;28;20207;-70
2022/08/20 03:50:44;;;;;;;1.95;1.85;;;23.40;69.80;;;;;;5114644;28;20172;-70
2022/08/20 03:53:13;;;;;;;1.90;1.77;;;23.40;69.80;;;;;;5112655;28;20183;-70
2022/08/20 03:55:42;;;;;;;2.13;2.03;;;23.40;69.70;;;;;;5113161;28;20182;-70
2022/08/20 03:58:09;;;;;;;1.88;1.77;;;23.40;69.80;;;;;;5099291;28;20291;-70
2022/08/20 04:00:41;;;;;;;1.70;1.60;;;23.40;69.80;;;;;;5093988;28;20180;-70
2022/08/20 04:03:09;;;;;;;2.00;1.90;;;23.30;69.60;;;;;;5093236;28;20181;-70
2022/08/20 04:05:39;;;;;;;2.00;1.90;;;23.30;69.60;;;;;;5075814;28;20185;-70
2022/08/20 04:08:23;;;;;;;1.85;1.75;;;23.40;69.70;;;;;;5075697;28;20230;-70
2022/08/20 04:10:50;;;;;;;1.98;1.88;;;23.40;69.70;;;;;;5075566;28;20185;-70
2022/08/20 04:13:20;;;;;;;1.98;1.88;;;23.40;69.70;;;;;;5087935;28;20188;-70
2022/08/20 04:15:46;;;;;;;1.80;1.70;;;23.30;69.60;;;;;;5096002;28;20247;-70
2022/08/20 04:18:19;;;;;;;1.90;1.80;;;23.40;69.70;;;;;;5095847;28;20562;-70
2022/08/20 04:20:45;;;;;;;1.80;1.70;;;23.40;69.70;;;;;;5095777;28;20184;-70
2022/08/20 04:23:13;;;;;;;1.80;1.70;;;23.30;69.50;;;;;;5112219;28;20203;-70
2022/08/20 04:25:41;;;;;;;1.70;1.60;;;23.30;69.50;;;;;;5078416;28;20184;-70
2022/08/20 04:28:14;;;;;;;1.67;1.58;;;23.30;69.50;;;;;;5095518;28;20195;-70
2022/08/20 04:30:41;;;;;;;1.80;1.70;;;23.30;69.50;;;;;;5113474;28;20211;-70
2022/08/20 04:33:09;;;;;;;1.95;1.85;;;23.30;69.40;;;;;;5111774;28;20180;-70
2022/08/20 04:35:35;;;;;;;1.98;1.88;;;23.30;69.50;;;;;;5112654;28;20196;-70
2022/08/20 04:38:08;;;;;;;1.90;1.80;;;23.30;69.40;;;;;;5095450;28;20196;-70
2022/08/20 04:40:57;;;;;;;1.98;1.88;;;23.30;69.50;;;;;;5078693;28;20176;-70
2022/08/20 04:43:29;;;;;;;1.90;1.80;;;23.30;69.40;;;;;;5112244;28;20282;-69
2022/08/20 04:45:58;;;;;;;1.80;1.70;;;23.30;69.50;;;;;;5095295;28;20180;-70
2022/08/20 04:48:27;;;;;;;1.90;1.80;;;23.30;69.40;;;;;;5113453;28;20192;-70
2022/08/20 04:50:55;;;;;;;1.83;1.73;;;23.30;69.50;;;;;;5095161;28;20184;-69
2022/08/20 04:53:24;;;;;;;1.50;1.40;;;23.30;69.40;;;;;;5112500;28;20180;-70
2022/08/20 04:55:53;;;;;;;1.80;1.70;;;23.30;69.50;;;;;;5078097;28;20179;-70
2022/08/20 04:58:29;;;;;;;1.80;1.70;;;23.30;69.40;;;;;;5086300;28;20208;-70
2022/08/20 05:01:05;;;;;;;1.60;1.50;;;23.30;69.40;;;;;;5113235;28;20300;-70
2022/08/20 05:03:32;;;;;;;1.60;1.50;;;23.30;69.50;;;;;;5078220;28;20705;-70
2022/08/20 05:06:00;;;;;;;2.20;1.80;;;23.30;69.40;;;;;;5113103;28;20184;-70
2022/08/20 05:08:26;;;;;;;1.70;1.60;;;23.30;69.40;;;;;;5077862;28;20314;-69
2022/08/20 05:10:54;;;;;;;1.55;1.45;;;23.30;69.40;;;;;;5094851;28;20214;-70
2022/08/20 05:13:20;;;;;;;1.70;1.60;;;23.30;69.50;;;;;;5093640;28;20180;-70
2022/08/20 05:15:47;;;;;;;1.80;1.70;;;23.30;69.50;;;;;;5077935;28;20278;-70
2022/08/20 05:18:18;;;;;;;1.75;1.65;;;23.30;69.50;;;;;;5094808;28;20274;-70
2022/08/20 05:20:46;;;;;;;1.77;1.67;;;23.30;69.50;;;;;;5094900;28;20180;-70
2022/08/20 05:23:14;;;;;;;1.55;1.45;;;23.30;69.50;;;;;;5077282;28;20275;-70
2022/08/20 05:25:43;;;;;;;2.15;1.65;;;23.30;69.50;;;;;;5094662;28;20201;-70
2022/08/20 05:28:17;;;;;;;1.80;1.70;;;23.30;69.50;;;;;;5094400;28;20192;-70
2022/08/20 05:30:46;;;;;;;1.67;1.58;;;23.30;69.60;;;;;;5112791;28;20172;-70
2022/08/20 05:33:15;;;;;;;1.73;1.63;;;23.30;69.60;;;;;;5111977;28;20263;-70
2022/08/20 05:35:42;;;;;;;1.48;1.38;;;23.30;69.60;;;;;;5094372;28;20192;-70
2022/08/20 05:38:13;;;;;;;1.70;1.60;;;23.30;69.60;;;;;;5077616;28;20196;-70
2022/08/20 05:40:41;;;;;;;1.77;1.67;;;23.30;69.70;;;;;;5111391;28;20180;-69
2022/08/20 05:43:08;;;;;;;1.75;1.65;;;23.30;69.70;;;;;;5110643;28;20176;-70
2022/08/20 05:45:37;;;;;;;1.63;1.52;;;23.30;69.80;;;;;;5111362;28;20180;-70
2022/08/20 05:48:17;;;;;;;1.80;1.70;;;23.30;69.80;;;;;;5111266;28;20204;-70
2022/08/20 05:50:47;;;;;;;2.15;1.90;;;23.30;69.70;;;;;;5110293;28;20172;-70
2022/08/20 05:53:13;;;;;;;1.60;1.50;;;23.30;69.70;;;;;;5111878;28;20176;-70
2022/08/20 05:55:38;;;;;;;1.65;1.55;;;23.30;69.70;;;;;;5112255;28;20179;-70
2022/08/20 05:58:13;;;;;;;2.00;1.90;;;23.30;69.70;;;;;;5087883;28;20207;-70
2022/08/20 06:00:39;;;;;;;1.65;1.55;;;23.30;69.80;;;;;;5094323;28;20625;-70
2022/08/20 06:05:50;;;;;;;1.80;1.70;;;23.30;69.80;;;;;;5111063;28;20183;-70
2022/08/20 06:08:16;;;;;;;1.77;1.67;;;23.30;69.80;;;;;;5077074;28;20690;-70
2022/08/20 06:10:43;;;;;;;1.85;1.75;;;23.30;69.90;;;;;;5094202;28;20184;-70
2022/08/20 06:13:09;;;;;;;1.60;1.50;;;23.30;70.00;;;;;;5111420;28;20647;-70
2022/08/20 06:15:35;;;;;;;1.65;1.55;;;23.30;70.10;;;;;;5077163;28;20190;-70
2022/08/20 06:18:07;;;;;;;1.83;1.73;;;23.20;70.10;;;;;;5076873;28;20207;-70
2022/08/20 06:20:37;;;;;;;1.67;1.58;;;23.30;70.10;;;;;;5093756;28;20184;-70
2022/08/20 06:23:04;;;;;;;1.80;1.70;;;23.30;70.10;;;;;;5093792;28;20176;-70
2022/08/20 06:25:31;;;;;;;1.83;1.73;;;23.30;70.10;;;;;;5094210;28;20236;-69
2022/08/20 06:27:57;;;;;;;1.65;1.55;;;23.30;70.10;;;;;;5077007;28;20290;-70
2022/08/20 06:30:23;;;;;;;1.50;1.40;;;23.20;70.00;;;;;;5111832;28;20217;-70
2022/08/20 06:32:49;;;;;;;1.70;1.60;;;23.30;70.10;;;;;;5111356;28;20265;-70
2022/08/20 06:35:15;;;;;;;1.42;1.35;;;23.30;70.10;;;;;;5094608;28;20188;-70
2022/08/20 06:37:41;;;;;;;1.70;1.60;;;23.30;70.20;;;;;;5093864;28;20207;-70
2022/08/20 06:40:11;;;;;;;1.70;1.60;;;23.30;70.10;;;;;;5093812;28;20180;-70
2022/08/20 06:42:42;;;;;;;1.90;1.80;;;23.30;70.10;;;;;;5093173;28;20670;-70
2022/08/20 06:45:11;;;;;;;1.75;1.65;;;23.30;70.10;;;;;;5093622;28;20216;-70
2022/08/20 06:47:43;;;;;;;1.75;1.65;;;23.30;70.00;;;;;;5111780;28;20263;-69
2022/08/20 06:50:14;;;;;;;1.67;1.58;;;23.30;70.20;;;;;;5093867;28;20180;-70
2022/08/20 06:52:40;;;;;;;1.70;1.60;;;23.30;70.20;;;;;;5110151;28;20272;-70
2022/08/20 06:55:10;;;;;;;1.52;1.42;;;23.30;70.30;;;;;;5097372;28;20219;-70
2022/08/20 06:57:37;;;;;;;1.70;1.60;;;23.30;70.30;;;;;;5096245;28;20674;-70
2022/08/20 07:00:13;;;;;;;1.65;1.55;;;23.20;70.30;;;;;;5115578;28;20199;-70
2022/08/20 07:02:39;;;;;;;1.48;1.38;;;23.30;70.40;;;;;;5079750;28;20179;-70
2022/08/20 07:05:06;;;;;;;1.70;1.60;;;23.20;70.40;;;;;;5115340;28;20593;-70
2022/08/20 07:07:33;;;;;;;1.60;1.50;;;23.20;70.40;;;;;;5097394;28;20191;-70
2022/08/20 07:10:08;;;;;;;1.85;1.75;;;23.30;70.50;;;;;;5097047;28;20187;-70
2022/08/20 07:12:35;;;;;;;1.90;1.80;;;23.30;70.50;;;;;;5114929;28;20235;-70
2022/08/20 07:15:05;;;;;;;1.60;1.50;;;23.30;70.40;;;;;;5115233;28;20172;-70
2022/08/20 07:17:30;;;;;;;1.80;1.70;;;23.30;70.40;;;;;;5115153;28;20270;-70
2022/08/20 07:19:56;;;;;;;1.73;1.63;;;23.30;70.50;;;;;;5097093;28;20325;-70
2022/08/20 07:22:23;;;;;;;1.85;1.75;;;23.30;70.50;;;;;;5096419;28;20184;-70
2022/08/20 07:24:50;;;;;;;1.70;1.60;;;23.30;70.50;;;;;;5096642;28;20223;-70
2022/08/20 07:27:22;;;;;;;1.95;1.85;;;23.30;70.50;;;;;;5079865;28;20176;-70
2022/08/20 07:32:35;;;;;;;1.63;1.52;;;23.30;70.50;;;;;;5113304;28;20568;-70
2022/08/20 07:35:07;;;;;;;1.85;1.75;;;23.30;70.50;;;;;;5079690;28;20793;-70
2022/08/20 07:37:47;;;;;;;1.90;1.80;;;23.20;70.40;;;;;;5096952;28;20262;-70
2022/08/20 07:40:22;;;;;;;1.65;1.55;;;23.20;70.40;;;;;;5113634;28;20208;-70
2022/08/20 07:42:49;;;;;;;1.60;1.50;;;23.30;70.50;;;;;;5114161;28;20182;-70
2022/08/20 07:45:17;;;;;;;1.77;1.67;;;23.30;70.50;;;;;;5113593;28;20242;-70
2022/08/20 07:47:45;;;;;;;1.88;1.77;;;23.30;70.50;;;;;;5096144;28;20260;-70
2022/08/20 07:50:17;;;;;;;1.58;1.48;;;23.30;70.50;;;;;;5096461;28;20183;-70
2022/08/20 07:52:46;;;;;;;2.00;1.90;;;23.30;70.50;;;;;;5095820;28;20195;-70
2022/08/20 07:55:15;;;;;;;1.63;1.52;;;23.30;70.70;;;;;;5079103;28;20198;-70
2022/08/20 07:57:42;;;;;;;1.90;1.80;;;23.30;70.50;;;;;;5113117;28;20219;-69
2022/08/20 08:00:11;;;;;;;1.65;1.55;;;23.30;70.60;;;;;;5096087;28;20192;-70
2022/08/20 08:02:38;;;;;;;1.60;1.50;;;23.30;70.50;;;;;;5112592;28;20195;-70
2022/08/20 08:05:05;;;;;;;1.90;1.80;;;23.30;70.70;;;;;;5096287;28;20240;-70
2022/08/20 08:07:33;;;;;;;1.65;1.55;;;23.30;70.50;;;;;;5095877;28;20176;-70
2022/08/20 08:10:01;;;;;;;1.70;1.60;;;23.30;70.70;;;;;;5114073;28;20651;-70
2022/08/20 08:12:35;;;;;;;1.75;1.65;;;23.40;70.60;;;;;;5095408;28;20184;-70
2022/08/20 08:15:03;;;;;;;1.73;1.63;;;23.40;70.90;;;;;;5095806;28;20184;-70
2022/08/20 08:17:30;;;;;;;1.90;1.80;;;23.40;70.60;;;;;;5095736;28;20183;-70
2022/08/20 08:19:57;;;;;;;1.70;1.60;;;23.40;70.80;;;;;;5095634;28;20541;-70
2022/08/20 08:22:23;;;;;;;1.60;1.50;;;23.40;70.60;;;;;;5113088;28;20655;-70
2022/08/20 08:24:49;;;;;;;1.63;1.52;;;23.40;70.60;;;;;;5095620;28;20212;-70
2022/08/20 08:27:18;;;;;;;1.70;1.60;;;23.40;70.60;;;;;;5095578;28;20180;-70
2022/08/20 08:29:45;;;;;;;1.65;1.55;;;23.40;70.60;;;;;;5095700;28;20192;-70
2022/08/20 08:32:11;;;;;;;1.80;1.70;;;23.40;70.60;;;;;;5095004;28;20275;-70
2022/08/20 08:34:38;;;;;;;1.77;1.67;;;23.40;70.60;;;;;;5078274;28;20187;-70
2022/08/20 08:37:04;;;;;;;1.55;1.45;;;23.40;70.60;;;;;;5078630;28;20184;-70
2022/08/20 08:39:32;;;;;;;1.60;1.50;;;23.40;70.60;;;;;;5112296;28;20253;-70
2022/08/20 08:42:01;;;;;;;1.70;1.60;;;23.40;70.60;;;;;;5094736;28;20196;-70
2022/08/20 08:44:34;;;;;;;1.83;1.73;;;23.40;70.50;;;;;;5112455;28;20794;-70
2022/08/20 08:47:12;;;;;;;1.80;1.70;;;23.40;70.60;;;;;;5110067;28;20184;-70
2022/08/20 08:49:38;;;;;;;1.70;1.60;;;23.50;70.70;;;;;;5090159;28;20220;-70
2022/08/20 08:52:13;;;;;;;1.85;1.75;;;23.50;70.70;;;;;;5094532;28;20614;-70
2022/08/20 08:54:46;;;;;;;1.70;1.60;;;23.40;70.60;;;;;;5095237;28;20207;-70
2022/08/20 08:57:11;;;;;;;1.35;1.35;;;23.40;70.40;;;;;;5113345;28;20176;-69
2022/08/20 08:59:38;;;;;;;1.70;1.60;;;23.40;70.60;;;;;;5113204;28;20192;-70
2022/08/20 09:02:05;;;;;;;2.00;1.70;;;23.50;70.70;;;;;;5094182;28;20191;-70
2022/08/20 09:04:39;;;;;;;1.80;1.70;;;23.40;70.60;;;;;;5094905;28;20273;-70
2022/08/20 09:07:12;;;;;;;1.65;1.55;;;23.50;70.60;;;;;;5113317;28;20599;-70
2022/08/20 09:09:43;;;;;;;1.60;1.50;;;23.40;70.60;;;;;;5094632;28;20732;-70
2022/08/20 09:12:20;;;;;;;1.60;1.50;;;23.40;70.40;;;;;;5094495;28;20639;-70
2022/08/20 09:14:48;;;;;;;1.80;1.70;;;23.40;70.50;;;;;;5094719;28;20187;-70
2022/08/20 09:17:18;;;;;;;1.58;1.48;;;23.50;70.70;;;;;;5094387;28;20189;-70
2022/08/20 09:19:44;;;;;;;1.98;1.77;;;23.50;70.50;;;;;;5094711;28;20204;-70
2022/08/20 09:22:17;;;;;;;1.80;1.70;;;23.50;70.30;;;;;;5094168;28;20176;-70
2022/08/20 09:24:43;;;;;;;1.80;1.70;;;23.50;70.30;;;;;;5094693;28;20283;-70
2022/08/20 09:27:10;;;;;;;1.77;1.67;;;23.50;70.30;;;;;;5112456;28;20644;-69
2022/08/20 09:29:36;;;;;;;1.73;1.63;;;23.50;70.20;;;;;;5094611;28;20203;-69
2022/08/20 09:32:13;;;;;;;2.00;1.90;;;23.50;70.70;;;;;;5094107;28;20218;-70
2022/08/20 09:34:46;;;;;;;1.70;1.60;;;23.60;70.40;;;;;;5111585;28;20184;-70
2022/08/20 09:37:13;;;;;;;1.75;1.65;;;23.60;70.50;;;;;;5112497;28;20176;-70
2022/08/20 09:39:40;;;;;;;1.88;1.77;;;23.50;70.30;;;;;;5094355;28;20200;-70
2022/08/20 09:42:26;;;;;;;1.58;1.48;;;23.50;70.20;;;;;;5093973;28;20188;-70
2022/08/20 09:44:53;;;;;;;1.80;1.70;;;23.50;70.30;;;;;;5094297;28;20348;-70
2022/08/20 09:47:19;;;;;;;1.77;1.45;;;23.50;70.40;;;;;;5086707;28;20188;-70
2022/08/20 09:49:46;;;;;;;1.80;1.70;;;23.50;70.40;;;;;;5109141;28;20180;-70
2022/08/20 09:52:38;;;;;;;1.58;1.48;;;23.50;70.40;;;;;;5110845;28;20186;-70
2022/08/20 09:55:17;;;;;;;1.70;1.60;;;23.60;70.40;;;;;;5111345;28;20195;-70
2022/08/20 09:57:42;;;;;;;1.75;1.65;;;23.50;70.50;;;;;;5110963;28;20207;-70
2022/08/20 10:00:11;;;;;;;1.45;1.35;;;23.60;70.60;;;;;;5111028;28;20252;-70
2022/08/20 10:02:40;;;;;;;1.85;1.75;;;23.50;70.20;;;;;;5110727;28;20215;-70
2022/08/20 10:05:08;;;;;;;1.65;1.55;;;23.50;70.20;;;;;;5112152;28;20251;-70
2022/08/20 10:07:34;;;;;;;1.67;1.58;;;23.50;70.20;;;;;;5112180;28;20192;-70
2022/08/20 10:10:01;;;;;;;1.70;1.60;;;23.60;70.20;;;;;;5112382;28;20219;-70
2022/08/20 10:12:27;;;;;;;1.70;1.60;;;23.60;70.30;;;;;;5111679;28;20661;-70
2022/08/20 10:14:54;;;;;;;1.90;1.40;;;23.60;70.20;;;;;;5110747;28;20255;-70
2022/08/20 10:17:20;;;;;;;1.52;1.42;;;23.60;70.20;;;;;;5093558;28;20708;-70
2022/08/20 10:19:46;;;;;;;1.58;1.48;;;23.60;70.40;;;;;;5112199;28;20183;-70
2022/08/20 10:22:12;;;;;;;1.63;1.52;;;23.60;70.40;;;;;;5093627;28;20188;-70
2022/08/20 10:24:38;;;;;;;1.70;1.60;;;23.60;70.40;;;;;;5112345;28;20208;-70
2022/08/20 10:27:04;;;;;;;1.60;1.50;;;23.60;70.40;;;;;;5076770;28;20222;-70
2022/08/20 10:29:30;;;;;;;1.60;1.50;;;23.60;70.30;;;;;;5097000;28;20198;-70
2022/08/20 10:32:08;;;;;;;2.13;1.70;;;23.60;70.30;;;;;;5115588;28;20209;-70
2022/08/20 10:34:33;;;;;;;1.48;1.35;;;23.60;70.30;;;;;;5080853;28;20195;-70
2022/08/20 10:36:59;;;;;;;1.40;1.30;;;23.60;70.10;;;;;;5114737;28;20184;-69
2022/08/20 10:39:25;;;;;;;1.33;1.33;;;23.60;70.10;;;;;;5116119;28;20214;-70
2022/08/20 10:41:51;;;;;;;1.70;1.50;;;23.60;70.00;;;;;;5115669;28;20188;-70
2022/08/20 10:44:16;;;;;;;1.73;1.63;;;23.60;70.20;;;;;;5097631;28;20214;-70
2022/08/20 10:46:44;;;;;;;1.67;1.58;;;23.60;70.30;;;;;;5097624;28;20237;-70
2022/08/20 10:49:10;;;;;;;1.63;1.52;;;23.60;70.00;;;;;;5114472;28;20253;-70
2022/08/20 10:51:36;;;;;;;1.25;1.25;;;23.60;70.00;;;;;;5115211;28;20180;-69
2022/08/20 10:54:02;;;;;;;1.60;1.50;;;23.60;70.30;;;;;;5097686;28;20176;-70
2022/08/20 10:56:27;;;;;;;1.17;1.17;;;23.70;70.10;;;;;;5096858;28;20188;-70
2022/08/20 10:58:53;;;;;;;1.73;1.63;;;23.70;70.10;;;;;;5097230;28;20212;-70
2022/08/20 11:01:19;;;;;;;1.52;1.42;;;23.70;70.10;;;;;;5093607;28;20229;-70
2022/08/20 11:03:45;;;;;;;1.50;1.40;;;23.70;70.10;;;;;;5076189;28;20212;-70
2022/08/20 11:06:11;;;;;;;1.80;1.70;;;23.60;70.00;;;;;;5077101;28;20181;-70
2022/08/20 11:08:36;;;;;;;1.50;1.40;;;23.70;70.10;;;;;;5076890;28;20251;-70
2022/08/20 11:11:04;;;;;;;1.70;1.60;;;23.70;70.20;;;;;;5076760;28;20208;-70
2022/08/20 11:13:31;;;;;;;1.60;1.50;;;23.70;70.30;;;;;;5076255;28;20216;-70
2022/08/20 11:15:57;;;;;;;1.73;1.63;;;23.70;70.00;;;;;;5076741;28;20185;-70
2022/08/20 11:18:23;;;;;;;1.50;1.40;;;23.70;70.00;;;;;;5076563;28;20201;-70
2022/08/20 11:20:49;;;;;;;2.50;1.50;;;23.70;70.00;;;;;;5094711;28;20230;-70
2022/08/20 11:23:14;;;;;;;1.63;1.52;;;23.70;70.00;;;;;;5094183;28;20188;-70
2022/08/20 11:25:40;;;;;;;1.73;1.63;;;23.70;70.10;;;;;;5094725;28;20177;-70
2022/08/20 11:28:06;;;;;;;1.70;1.60;;;23.70;70.00;;;;;;5076413;28;20232;-70
2022/08/20 11:30:35;;;;;;;1.65;1.55;;;23.70;70.10;;;;;;5094712;28;20184;-70
2022/08/20 11:33:01;;;;;;;1.50;1.40;;;23.70;70.10;;;;;;5076079;28;20193;-70
2022/08/20 11:35:30;;;;;;;1.40;1.30;;;23.70;70.10;;;;;;5094544;28;20177;-70
2022/08/20 11:37:58;;;;;;;1.83;1.67;;;23.70;70.10;;;;;;5076358;28;20306;-70
2022/08/20 11:40:25;;;;;;;1.50;1.40;;;23.70;70.20;;;;;;5076335;28;20213;-70
2022/08/20 11:42:51;;;;;;;1.70;1.60;;;23.70;70.20;;;;;;5059047;28;20185;-70
2022/08/20 11:45:17;;;;;;;1.70;1.60;;;23.70;70.20;;;;;;5094370;28;20246;-70
2022/08/20 11:47:44;;;;;;;1.67;1.58;;;23.70;70.20;;;;;;5059515;28;20205;-70
2022/08/20 11:50:17;;;;;;;1.60;1.50;;;23.70;70.20;;;;;;5094273;28;20319;-70
2022/08/20 11:52:43;;;;;;;1.45;1.35;;;23.70;70.30;;;;;;5075644;28;20181;-70
2022/08/20 11:55:12;;;;;;;1.60;1.50;;;23.70;70.30;;;;;;5076147;28;20197;-70
2022/08/20 11:57:43;;;;;;;1.40;1.30;;;23.70;70.50;;;;;;5075819;28;20242;-70
2022/08/20 12:00:16;;;;;;;1.48;1.38;;;23.70;70.40;;;;;;5076209;28;20547;-70
2022/08/20 12:02:42;;;;;;;1.67;1.58;;;23.70;70.40;;;;;;5093646;28;20284;-70
2022/08/20 12:05:10;;;;;;;1.40;1.30;;;23.70;70.40;;;;;;5093813;28;20204;-70
2022/08/20 12:07:36;;;;;;;1.40;1.30;;;23.70;70.30;;;;;;5094415;28;20201;-69
2022/08/20 12:10:05;;;;;;;1.70;1.60;;;23.70;70.20;;;;;;5078924;28;20238;-70
2022/08/20 12:12:31;;;;;;;1.48;1.40;;;23.70;70.10;;;;;;5113872;28;20191;-70
2022/08/20 12:14:57;;;;;;;1.10;1.10;;;23.70;70.10;;;;;;5096025;28;20192;-70
2022/08/20 12:17:27;;;;;;;1.50;1.40;;;23.70;70.20;;;;;;5113969;28;20209;-70
2022/08/20 12:19:57;;;;;;;1.50;1.40;;;23.70;70.20;;;;;;5079070;28;20190;-70
2022/08/20 12:22:24;;;;;;;1.55;1.35;;;23.70;70.10;;;;;;5113374;28;20180;-70
2022/08/20 12:24:49;;;;;;;1.42;1.38;;;23.70;70.20;;;;;;5095648;28;20207;-70
2022/08/20 12:27:26;;;;;;;1.55;1.45;;;23.70;69.80;;;;;;5114061;28;20175;-70
2022/08/20 12:29:55;;;;;;;1.27;1.27;;;23.70;69.90;;;;;;5095717;28;20180;-70
2022/08/20 12:32:24;;;;;;;1.40;1.30;;;23.70;70.10;;;;;;5095099;28;20172;-70
2022/08/20 12:34:50;;;;;;;1.08;1.08;;;23.70;70.00;;;;;;5095059;28;20184;-70
2022/08/20 12:37:23;;;;;;;1.10;1.10;;;23.70;70.10;;;;;;5095588;28;20176;-70
2022/08/20 12:39:53;;;;;;;1.10;1.10;;;23.70;70.10;;;;;;5078654;28;20222;-70
2022/08/20 12:42:20;;;;;;;1.30;1.20;;;23.70;70.10;;;;;;5095032;28;20225;-71
2022/08/20 12:44:46;;;;;;;1.20;1.20;;;23.70;70.10;;;;;;5095134;28;20596;-70
2022/08/20 12:47:29;;;;;;;1.25;1.25;;;23.70;70.10;;;;;;5112259;28;20189;-70
2022/08/20 12:50:09;;;;;;;1.27;1.20;;;23.70;70.10;;;;;;5095317;28;20168;-70
2022/08/20 12:52:35;;;;;;;1.20;1.20;;;23.70;70.10;;;;;;5112474;28;20731;-70
2022/08/20 12:55:04;;;;;;;1.23;1.13;;;23.80;70.30;;;;;;5112923;28;20263;-70
2022/08/20 12:57:40;;;;;;;1.58;1.13;;;23.70;70.10;;;;;;5094383;28;20271;-70
2022/08/20 13:00:21;;;;;;;1.40;1.30;;;23.70;70.10;;;;;;5113274;28;20271;-70
2022/08/20 13:02:48;;;;;;;1.20;1.20;;;23.70;70.30;;;;;;5112748;28;20183;-70